sensor_id;sensor_type;location;lat;lon;timestamp;pressure;altitude;pressure_sealevel;temperature
74043;BMP280;62384;53.600;10.040;2022-12-20T00:01:55;-9480.75;;;8.85
74043;BMP280;62384;53.600;10.040;2022-12-20T00:04:20;-9485.09;;;9.01
74043;BMP280;62384;53.600;10.040;2022-12-20T00:06:46;-9488.13;;;9.13
74043;BMP280;62384;53.600;10.040;2022-12-20T00:09:11;-9486.94;;;9.08
74043;BMP280;62384;53.600;10.040;2022-12-20T00:11:38;-9488.13;;;9.13
74043;BMP280;62384;53.600;10.040;2022-12-20T00:14:04;-9488.00;;;9.12
74043;BMP280;62384;53.600;10.040;2022-12-20T00:16:29;-9487.47;;;9.10
74043;BMP280;62384;53.600;10.040;2022-12-20T00:18:57;-9488.66;;;9.15
74043;BMP280;62384;53.600;10.040;2022-12-20T00:21:24;-9491.16;;;9.24
74043;BMP280;62384;53.600;10.040;2022-12-20T00:23:51;-9493.13;;;9.32
74043;BMP280;62384;53.600;10.040;2022-12-20T00:26:19;-9492.34;;;9.29
74043;BMP280;62384;53.600;10.040;2022-12-20T00:28:45;-9493.91;;;9.35
74043;BMP280;62384;53.600;10.040;2022-12-20T00:31:11;-9494.84;;;9.38
74043;BMP280;62384;53.600;10.040;2022-12-20T00:33:40;-9493.41;;;9.33
74043;BMP280;62384;53.600;10.040;2022-12-20T00:36:08;-9493.66;;;9.34
74043;BMP280;62384;53.600;10.040;2022-12-20T00:38:34;-9494.84;;;9.38
74043;BMP280;62384;53.600;10.040;2022-12-20T00:41:05;-9495.38;;;9.40
74043;BMP280;62384;53.600;10.040;2022-12-20T00:43:31;-9494.06;;;9.35
74043;BMP280;62384;53.600;10.040;2022-12-20T00:45:57;-9492.88;;;9.31
74043;BMP280;62384;53.600;10.040;2022-12-20T00:48:23;-9494.59;;;9.37
74043;BMP280;62384;53.600;10.040;2022-12-20T00:50:49;-9493.41;;;9.33
74043;BMP280;62384;53.600;10.040;2022-12-20T00:53:14;-9491.56;;;9.26
74043;BMP280;62384;53.600;10.040;2022-12-20T00:55:44;-9494.97;;;9.39
74043;BMP280;62384;53.600;10.040;2022-12-20T00:58:12;-9493.28;;;9.32
74043;BMP280;62384;53.600;10.040;2022-12-20T01:00:38;-9490.63;;;9.22
74043;BMP280;62384;53.600;10.040;2022-12-20T01:03:04;-9483.78;;;8.96
74043;BMP280;62384;53.600;10.040;2022-12-20T01:05:30;-9490.25;;;9.21
74043;BMP280;62384;53.600;10.040;2022-12-20T01:07:55;-9488.91;;;9.16
74043;BMP280;62384;53.600;10.040;2022-12-20T01:10:21;-9488.41;;;9.14
74043;BMP280;62384;53.600;10.040;2022-12-20T01:12:46;-9488.13;;;9.13
74043;BMP280;62384;53.600;10.040;2022-12-20T01:15:11;-9489.19;;;9.17
74043;BMP280;62384;53.600;10.040;2022-12-20T01:17:37;-9485.09;;;9.01
74043;BMP280;62384;53.600;10.040;2022-12-20T01:20:03;-9486.81;;;9.08
74043;BMP280;62384;53.600;10.040;2022-12-20T01:22:28;-9487.47;;;9.10
74043;BMP280;62384;53.600;10.040;2022-12-20T01:24:54;-9491.16;;;9.24
74043;BMP280;62384;53.600;10.040;2022-12-20T01:27:19;-9483.13;;;8.94
74043;BMP280;62384;53.600;10.040;2022-12-20T01:29:44;-9490.25;;;9.21
74043;BMP280;62384;53.600;10.040;2022-12-20T01:32:09;-9492.09;;;9.28
74043;BMP280;62384;53.600;10.040;2022-12-20T01:34:35;-9492.22;;;9.28
74043;BMP280;62384;53.600;10.040;2022-12-20T01:37:00;-9490.78;;;9.23
74043;BMP280;62384;53.600;10.040;2022-12-20T01:39:26;-9489.31;;;9.17
74043;BMP280;62384;53.600;10.040;2022-12-20T01:41:51;-9492.75;;;9.30
74043;BMP280;62384;53.600;10.040;2022-12-20T01:46:43;-9494.44;;;9.37
74043;BMP280;62384;53.600;10.040;2022-12-20T01:51:42;-9497.75;;;9.50
74043;BMP280;62384;53.600;10.040;2022-12-20T01:54:16;-9498.13;;;9.51
74043;BMP280;62384;53.600;10.040;2022-12-20T01:56:47;-9495.91;;;9.43
74043;BMP280;62384;53.600;10.040;2022-12-20T01:59:14;-9497.75;;;9.50
74043;BMP280;62384;53.600;10.040;2022-12-20T02:01:41;-9498.41;;;9.52
74043;BMP280;62384;53.600;10.040;2022-12-20T02:04:06;-9498.94;;;9.54
74043;BMP280;62384;53.600;10.040;2022-12-20T02:06:32;-9499.84;;;9.58
74043;BMP280;62384;53.600;10.040;2022-12-20T02:08:58;-9501.44;;;9.64
74043;BMP280;62384;53.600;10.040;2022-12-20T02:11:39;-9500.91;;;9.62
74043;BMP280;62384;53.600;10.040;2022-12-20T02:27:48;-9506.56;;;9.83
74043;BMP280;62384;53.600;10.040;2022-12-20T02:30:18;-9507.34;;;9.86
74043;BMP280;62384;53.600;10.040;2022-12-20T02:32:53;-9508.00;;;9.89
74043;BMP280;62384;53.600;10.040;2022-12-20T02:35:22;-9509.06;;;9.93
74043;BMP280;62384;53.600;10.040;2022-12-20T02:37:51;-9506.44;;;9.83
74043;BMP280;62384;53.600;10.040;2022-12-20T02:40:23;-9508.94;;;9.92
74043;BMP280;62384;53.600;10.040;2022-12-20T02:42:53;-9509.47;;;9.94
74043;BMP280;62384;53.600;10.040;2022-12-20T02:45:21;-9509.47;;;9.94
74043;BMP280;62384;53.600;10.040;2022-12-20T02:47:52;-9511.31;;;10.01
74043;BMP280;62384;53.600;10.040;2022-12-20T02:50:27;-9513.16;;;10.08
74043;BMP280;62384;53.600;10.040;2022-12-20T02:52:55;-9511.69;;;10.03
74043;BMP280;62384;53.600;10.040;2022-12-20T02:55:29;-9512.75;;;10.07
74043;BMP280;62384;53.600;10.040;2022-12-20T02:58:02;-9513.16;;;10.08
74043;BMP280;62384;53.600;10.040;2022-12-20T03:00:33;-9514.06;;;10.12
74043;BMP280;62384;53.600;10.040;2022-12-20T03:03:02;-9515.38;;;10.17
74043;BMP280;62384;53.600;10.040;2022-12-20T03:05:48;-9515.78;;;10.19
74043;BMP280;62384;53.600;10.040;2022-12-20T03:08:14;-9515.66;;;10.18
74043;BMP280;62384;53.600;10.040;2022-12-20T03:10:39;-9517.88;;;10.27
74043;BMP280;62384;53.600;10.040;2022-12-20T03:13:05;-9517.75;;;10.26
74043;BMP280;62384;53.600;10.040;2022-12-20T03:15:30;-9519.47;;;10.33
74043;BMP280;62384;53.600;10.040;2022-12-20T03:17:55;-9520.91;;;10.38
74043;BMP280;62384;53.600;10.040;2022-12-20T03:20:20;-9518.00;;;10.27
74043;BMP280;62384;53.600;10.040;2022-12-20T03:22:46;-9520.38;;;10.36
74043;BMP280;62384;53.600;10.040;2022-12-20T03:25:12;-9522.09;;;10.43
74043;BMP280;62384;53.600;10.040;2022-12-20T03:27:40;-9522.34;;;10.44
74043;BMP280;62384;53.600;10.040;2022-12-20T03:30:06;-9521.69;;;10.41
74043;BMP280;62384;53.600;10.040;2022-12-20T03:32:32;-9521.31;;;10.40
74043;BMP280;62384;53.600;10.040;2022-12-20T03:34:57;-9521.56;;;10.41
74043;BMP280;62384;53.600;10.040;2022-12-20T03:37:22;-9521.69;;;10.41
74043;BMP280;62384;53.600;10.040;2022-12-20T03:39:48;-9523.94;;;10.50
74043;BMP280;62384;53.600;10.040;2022-12-20T03:42:13;-9523.53;;;10.48
74043;BMP280;62384;53.600;10.040;2022-12-20T03:44:39;-9524.47;;;10.52
74043;BMP280;62384;53.600;10.040;2022-12-20T03:47:04;-9524.47;;;10.52
74043;BMP280;62384;53.600;10.040;2022-12-20T03:49:29;-9524.34;;;10.51
74043;BMP280;62384;53.600;10.040;2022-12-20T03:51:55;-9526.97;;;10.61
74043;BMP280;62384;53.600;10.040;2022-12-20T03:54:20;-9526.97;;;10.61
74043;BMP280;62384;53.600;10.040;2022-12-20T03:56:45;-9527.22;;;10.62
74043;BMP280;62384;53.600;10.040;2022-12-20T03:59:10;-9527.22;;;10.62
74043;BMP280;62384;53.600;10.040;2022-12-20T04:01:36;-9527.22;;;10.62
74043;BMP280;62384;53.600;10.040;2022-12-20T04:04:03;-9527.09;;;10.62
74043;BMP280;62384;53.600;10.040;2022-12-20T04:06:29;-9527.63;;;10.64
74043;BMP280;62384;53.600;10.040;2022-12-20T04:08:54;-9530.13;;;10.73
74043;BMP280;62384;53.600;10.040;2022-12-20T04:11:20;-9530.91;;;10.76
74043;BMP280;62384;53.600;10.040;2022-12-20T04:13:55;-9532.75;;;10.84
74043;BMP280;62384;53.600;10.040;2022-12-20T04:16:26;-9532.63;;;10.83
74043;BMP280;62384;53.600;10.040;2022-12-20T04:18:52;-9532.75;;;10.84
74043;BMP280;62384;53.600;10.040;2022-12-20T04:21:28;-9533.16;;;10.85
74043;BMP280;62384;53.600;10.040;2022-12-20T04:23:54;-9533.81;;;10.88
74043;BMP280;62384;53.600;10.040;2022-12-20T04:26:20;-9533.94;;;10.88
74043;BMP280;62384;53.600;10.040;2022-12-20T04:28:45;-9533.41;;;10.86
74043;BMP280;62384;53.600;10.040;2022-12-20T04:31:11;-9534.06;;;10.89
74043;BMP280;62384;53.600;10.040;2022-12-20T04:33:37;-9534.75;;;10.91
74043;BMP280;62384;53.600;10.040;2022-12-20T04:36:03;-9533.94;;;10.88
74043;BMP280;62384;53.600;10.040;2022-12-20T04:38:28;-9533.53;;;10.87
74043;BMP280;62384;53.600;10.040;2022-12-20T04:40:54;-9533.81;;;10.88
74043;BMP280;62384;53.600;10.040;2022-12-20T04:43:20;-9532.91;;;10.84
74043;BMP280;62384;53.600;10.040;2022-12-20T04:45:47;-9533.69;;;10.87
74043;BMP280;62384;53.600;10.040;2022-12-20T04:48:13;-9532.75;;;10.84
74043;BMP280;62384;53.600;10.040;2022-12-20T04:50:38;-9531.56;;;10.79
74043;BMP280;62384;53.600;10.040;2022-12-20T04:53:03;-9532.22;;;10.82
74043;BMP280;62384;53.600;10.040;2022-12-20T04:55:50;-9532.22;;;10.82
74043;BMP280;62384;53.600;10.040;2022-12-20T04:58:16;-9531.31;;;10.78
74043;BMP280;62384;53.600;10.040;2022-12-20T05:00:41;-9530.38;;;10.74
74043;BMP280;62384;53.600;10.040;2022-12-20T05:03:06;-9529.47;;;10.71
74043;BMP280;62384;53.600;10.040;2022-12-20T05:05:32;-9523.16;;;10.47
74043;BMP280;62384;53.600;10.040;2022-12-20T05:07:57;-9529.84;;;10.72
74043;BMP280;62384;53.600;10.040;2022-12-20T05:10:22;-9528.16;;;10.66
74043;BMP280;62384;53.600;10.040;2022-12-20T05:12:48;-9529.19;;;10.70
74043;BMP280;62384;53.600;10.040;2022-12-20T05:15:13;-9527.63;;;10.64
74043;BMP280;62384;53.600;10.040;2022-12-20T05:17:42;-9527.75;;;10.64
74043;BMP280;62384;53.600;10.040;2022-12-20T05:20:10;-9526.97;;;10.61
74043;BMP280;62384;53.600;10.040;2022-12-20T05:22:36;-9524.72;;;10.53
74043;BMP280;62384;53.600;10.040;2022-12-20T05:25:20;-9523.53;;;10.48
74043;BMP280;62384;53.600;10.040;2022-12-20T05:28:04;-9523.16;;;10.47
74043;BMP280;62384;53.600;10.040;2022-12-20T05:30:29;-9525.25;;;10.55
74043;BMP280;62384;53.600;10.040;2022-12-20T05:32:54;-9522.63;;;10.45
74043;BMP280;62384;53.600;10.040;2022-12-20T05:35:20;-9523.69;;;10.49
74043;BMP280;62384;53.600;10.040;2022-12-20T05:37:46;-9523.53;;;10.48
74043;BMP280;62384;53.600;10.040;2022-12-20T05:40:11;-9524.06;;;10.50
74043;BMP280;62384;53.600;10.040;2022-12-20T05:42:36;-9522.88;;;10.46
74043;BMP280;62384;53.600;10.040;2022-12-20T05:45:03;-9523.41;;;10.48
74043;BMP280;62384;53.600;10.040;2022-12-20T05:47:28;-9520.25;;;10.36
74043;BMP280;62384;53.600;10.040;2022-12-20T05:50:02;-9522.09;;;10.43
74043;BMP280;62384;53.600;10.040;2022-12-20T05:52:28;-9521.03;;;10.39
74043;BMP280;62384;53.600;10.040;2022-12-20T05:54:53;-9521.19;;;10.39
74043;BMP280;62384;53.600;10.040;2022-12-20T05:57:18;-9520.91;;;10.38
74043;BMP280;62384;53.600;10.040;2022-12-20T05:59:43;-9519.19;;;10.32
74043;BMP280;62384;53.600;10.040;2022-12-20T06:02:09;-9520.38;;;10.36
74043;BMP280;62384;53.600;10.040;2022-12-20T06:04:35;-9516.03;;;10.20
74043;BMP280;62384;53.600;10.040;2022-12-20T06:07:01;-9516.03;;;10.20
74043;BMP280;62384;53.600;10.040;2022-12-20T06:09:26;-9515.13;;;10.16
74043;BMP280;62384;53.600;10.040;2022-12-20T06:11:51;-9516.69;;;10.22
74043;BMP280;62384;53.600;10.040;2022-12-20T06:14:17;-9516.56;;;10.22
74043;BMP280;62384;53.600;10.040;2022-12-20T06:16:42;-9516.03;;;10.20
74043;BMP280;62384;53.600;10.040;2022-12-20T06:19:07;-9514.19;;;10.13
74043;BMP280;62384;53.600;10.040;2022-12-20T06:21:33;-9515.78;;;10.19
74043;BMP280;62384;53.600;10.040;2022-12-20T06:23:58;-9516.56;;;10.22
74043;BMP280;62384;53.600;10.040;2022-12-20T06:26:23;-9514.59;;;10.14
74043;BMP280;62384;53.600;10.040;2022-12-20T06:28:49;-9517.22;;;10.24
74043;BMP280;62384;53.600;10.040;2022-12-20T06:31:18;-9517.22;;;10.24
74043;BMP280;62384;53.600;10.040;2022-12-20T06:33:43;-9518.16;;;10.28
74043;BMP280;62384;53.600;10.040;2022-12-20T06:36:09;-9519.06;;;10.31
74043;BMP280;62384;53.600;10.040;2022-12-20T06:38:34;-9516.84;;;10.23
74043;BMP280;62384;53.600;10.040;2022-12-20T06:41:00;-9519.06;;;10.31
74043;BMP280;62384;53.600;10.040;2022-12-20T06:43:25;-9519.59;;;10.33
74043;BMP280;62384;53.600;10.040;2022-12-20T06:45:50;-9519.59;;;10.33
74043;BMP280;62384;53.600;10.040;2022-12-20T06:48:15;-9515.50;;;10.18
74043;BMP280;62384;53.600;10.040;2022-12-20T06:50:41;-9519.84;;;10.34
74043;BMP280;62384;53.600;10.040;2022-12-20T06:53:06;-9519.59;;;10.33
74043;BMP280;62384;53.600;10.040;2022-12-20T06:55:32;-9519.72;;;10.34
74043;BMP280;62384;53.600;10.040;2022-12-20T06:57:57;-9517.75;;;10.26
74043;BMP280;62384;53.600;10.040;2022-12-20T07:00:22;-9518.00;;;10.27
74043;BMP280;62384;53.600;10.040;2022-12-20T07:02:48;-9516.56;;;10.22
74043;BMP280;62384;53.600;10.040;2022-12-20T07:05:13;-9517.63;;;10.26
74043;BMP280;62384;53.600;10.040;2022-12-20T07:07:38;-9517.22;;;10.24
74043;BMP280;62384;53.600;10.040;2022-12-20T07:10:04;-9518.81;;;10.30
74043;BMP280;62384;53.600;10.040;2022-12-20T07:12:30;-9518.16;;;10.28
74043;BMP280;62384;53.600;10.040;2022-12-20T07:14:56;-9518.53;;;10.29
74043;BMP280;62384;53.600;10.040;2022-12-20T07:17:22;-9516.84;;;10.23
74043;BMP280;62384;53.600;10.040;2022-12-20T07:19:50;-9517.34;;;10.25
74043;BMP280;62384;53.600;10.040;2022-12-20T07:22:15;-9515.91;;;10.19
74043;BMP280;62384;53.600;10.040;2022-12-20T07:24:41;-9513.16;;;10.08
74043;BMP280;62384;53.600;10.040;2022-12-20T07:27:06;-9514.72;;;10.15
74043;BMP280;62384;53.600;10.040;2022-12-20T07:29:32;-9513.94;;;10.12
74043;BMP280;62384;53.600;10.040;2022-12-20T07:31:57;-9512.47;;;10.06
74043;BMP280;62384;53.600;10.040;2022-12-20T07:34:22;-9515.78;;;10.19
74043;BMP280;62384;53.600;10.040;2022-12-20T07:36:48;-9516.97;;;10.23
74043;BMP280;62384;53.600;10.040;2022-12-20T07:39:14;-9516.31;;;10.21
74043;BMP280;62384;53.600;10.040;2022-12-20T07:41:40;-9518.28;;;10.28
74043;BMP280;62384;53.600;10.040;2022-12-20T07:44:06;-9518.28;;;10.28
74043;BMP280;62384;53.600;10.040;2022-12-20T07:46:31;-9518.94;;;10.31
74043;BMP280;62384;53.600;10.040;2022-12-20T07:48:56;-9519.84;;;10.34
74043;BMP280;62384;53.600;10.040;2022-12-20T07:51:28;-9519.72;;;10.34
74043;BMP280;62384;53.600;10.040;2022-12-20T07:54:05;-9513.81;;;10.11
74043;BMP280;62384;53.600;10.040;2022-12-20T07:56:35;-9516.84;;;10.23
74043;BMP280;62384;53.600;10.040;2022-12-20T07:59:02;-9518.53;;;10.29
74043;BMP280;62384;53.600;10.040;2022-12-20T08:01:28;-9518.28;;;10.28
74043;BMP280;62384;53.600;10.040;2022-12-20T08:04:08;-9516.97;;;10.23
74043;BMP280;62384;53.600;10.040;2022-12-20T08:06:36;-9515.78;;;10.19
74043;BMP280;62384;53.600;10.040;2022-12-20T08:09:04;-9516.44;;;10.21
74043;BMP280;62384;53.600;10.040;2022-12-20T08:11:35;-9513.53;;;10.10
74043;BMP280;62384;53.600;10.040;2022-12-20T08:14:01;-9513.53;;;10.10
74043;BMP280;62384;53.600;10.040;2022-12-20T08:16:27;-9512.75;;;10.07
74043;BMP280;62384;53.600;10.040;2022-12-20T08:18:52;-9512.75;;;10.07
74043;BMP280;62384;53.600;10.040;2022-12-20T08:21:18;-9513.94;;;10.12
74043;BMP280;62384;53.600;10.040;2022-12-20T08:23:44;-9516.16;;;10.20
74043;BMP280;62384;53.600;10.040;2022-12-20T08:26:09;-9513.41;;;10.10
74043;BMP280;62384;53.600;10.040;2022-12-20T08:28:35;-9514.84;;;10.15
74043;BMP280;62384;53.600;10.040;2022-12-20T08:31:01;-9517.09;;;10.24
74043;BMP280;62384;53.600;10.040;2022-12-20T08:33:27;-9515.66;;;10.18
74043;BMP280;62384;53.600;10.040;2022-12-20T08:35:57;-9517.50;;;10.25
74043;BMP280;62384;53.600;10.040;2022-12-20T08:38:27;-9518.53;;;10.29
74043;BMP280;62384;53.600;10.040;2022-12-20T08:40:53;-9517.09;;;10.24
74043;BMP280;62384;53.600;10.040;2022-12-20T08:43:18;-9510.13;;;9.97
74043;BMP280;62384;53.600;10.040;2022-12-20T08:45:44;-9510.38;;;9.98
74043;BMP280;62384;53.600;10.040;2022-12-20T08:48:12;-9519.47;;;10.33
74043;BMP280;62384;53.600;10.040;2022-12-20T08:50:38;-9519.72;;;10.34
74043;BMP280;62384;53.600;10.040;2022-12-20T08:53:03;-9517.34;;;10.25
74043;BMP280;62384;53.600;10.040;2022-12-20T08:55:29;-9521.44;;;10.40
74043;BMP280;62384;53.600;10.040;2022-12-20T08:57:55;-9522.88;;;10.46
74043;BMP280;62384;53.600;10.040;2022-12-20T09:00:20;-9525.38;;;10.55
74043;BMP280;62384;53.600;10.040;2022-12-20T09:02:46;-9523.41;;;10.48
74043;BMP280;62384;53.600;10.040;2022-12-20T09:05:13;-9525.66;;;10.56
74043;BMP280;62384;53.600;10.040;2022-12-20T09:07:38;-9525.91;;;10.57
74043;BMP280;62384;53.600;10.040;2022-12-20T09:10:04;-9527.34;;;10.63
74043;BMP280;62384;53.600;10.040;2022-12-20T09:12:30;-9526.44;;;10.59
74043;BMP280;62384;53.600;10.040;2022-12-20T09:14:55;-9529.47;;;10.71
74043;BMP280;62384;53.600;10.040;2022-12-20T09:17:21;-9532.09;;;10.81
74043;BMP280;62384;53.600;10.040;2022-12-20T09:19:47;-9534.59;;;10.91
74043;BMP280;62384;53.600;10.040;2022-12-20T09:22:13;-9533.69;;;10.87
74043;BMP280;62384;53.600;10.040;2022-12-20T09:24:39;-9535.66;;;10.95
74043;BMP280;62384;53.600;10.040;2022-12-20T09:27:05;-9539.88;;;11.11
74043;BMP280;62384;53.600;10.040;2022-12-20T09:29:30;-9542.09;;;11.19
74043;BMP280;62384;53.600;10.040;2022-12-20T09:32:06;-9543.69;;;11.25
74043;BMP280;62384;53.600;10.040;2022-12-20T09:34:31;-9540.94;;;11.15
74043;BMP280;62384;53.600;10.040;2022-12-20T09:36:56;-9542.25;;;11.20
74043;BMP280;62384;53.600;10.040;2022-12-20T09:39:22;-9539.09;;;11.08
74043;BMP280;62384;53.600;10.040;2022-12-20T09:41:47;-9540.13;;;11.12
74043;BMP280;62384;53.600;10.040;2022-12-20T09:46:42;-9541.44;;;11.17
74043;BMP280;62384;53.600;10.040;2022-12-20T09:49:14;-9540.13;;;11.12
74043;BMP280;62384;53.600;10.040;2022-12-20T09:59:37;-9543.69;;;11.25
74043;BMP280;62384;53.600;10.040;2022-12-20T10:02:08;-9543.03;;;11.23
74043;BMP280;62384;53.600;10.040;2022-12-20T10:04:35;-9543.44;;;11.24
74043;BMP280;62384;53.600;10.040;2022-12-20T10:07:48;-9544.09;;;11.27
74043;BMP280;62384;53.600;10.040;2022-12-20T10:24:03;-9543.94;;;11.26
74043;BMP280;62384;53.600;10.040;2022-12-20T10:26:32;-9545.13;;;11.31
74043;BMP280;62384;53.600;10.040;2022-12-20T10:28:57;-9543.16;;;11.23
74043;BMP280;62384;53.600;10.040;2022-12-20T10:31:23;-9544.75;;;11.29
74043;BMP280;62384;53.600;10.040;2022-12-20T10:33:50;-9546.59;;;11.36
74043;BMP280;62384;53.600;10.040;2022-12-20T10:36:27;-9548.56;;;11.44
74043;BMP280;62384;53.600;10.040;2022-12-20T10:39:04;-9547.63;;;11.40
74043;BMP280;62384;53.600;10.040;2022-12-20T10:41:33;-9550.94;;;11.53
74043;BMP280;62384;53.600;10.040;2022-12-20T10:44:23;-9552.25;;;11.58
74043;BMP280;62384;53.600;10.040;2022-12-20T10:46:55;-9552.13;;;11.58
74043;BMP280;62384;53.600;10.040;2022-12-20T10:49:26;-9551.84;;;11.57
74043;BMP280;62384;53.600;10.040;2022-12-20T10:51:59;-9551.97;;;11.57
74043;BMP280;62384;53.600;10.040;2022-12-20T10:54:36;-9542.78;;;11.22
74043;BMP280;62384;53.600;10.040;2022-12-20T10:57:28;-9551.31;;;11.55
74043;BMP280;62384;53.600;10.040;2022-12-20T11:00:00;-9552.78;;;11.60
74043;BMP280;62384;53.600;10.040;2022-12-20T11:02:32;-9553.16;;;11.62
74043;BMP280;62384;53.600;10.040;2022-12-20T11:05:03;-9555.94;;;11.72
74043;BMP280;62384;53.600;10.040;2022-12-20T11:07:32;-9556.34;;;11.74
74043;BMP280;62384;53.600;10.040;2022-12-20T11:10:00;-9556.19;;;11.73
74043;BMP280;62384;53.600;10.040;2022-12-20T11:12:26;-9556.59;;;11.75
74043;BMP280;62384;53.600;10.040;2022-12-20T11:15:19;-9556.47;;;11.74
74043;BMP280;62384;53.600;10.040;2022-12-20T11:17:50;-9554.88;;;11.68
74043;BMP280;62384;53.600;10.040;2022-12-20T11:20:38;-9556.34;;;11.74
74043;BMP280;62384;53.600;10.040;2022-12-20T11:26:18;-9557.50;;;11.78
74043;BMP280;62384;53.600;10.040;2022-12-20T11:29:20;-9558.84;;;11.83
74043;BMP280;62384;53.600;10.040;2022-12-20T11:35:17;-9558.03;;;11.80
74043;BMP280;62384;53.600;10.040;2022-12-20T11:37:55;-9556.06;;;11.73
74043;BMP280;62384;53.600;10.040;2022-12-20T11:41:14;-9557.13;;;11.77
74043;BMP280;62384;53.600;10.040;2022-12-20T11:49:02;-9561.06;;;11.92
74043;BMP280;62384;53.600;10.040;2022-12-20T11:51:47;-9560.94;;;11.91
74043;BMP280;62384;53.600;10.040;2022-12-20T11:54:35;-9561.84;;;11.95
74043;BMP280;62384;53.600;10.040;2022-12-20T11:57:13;-9562.00;;;11.95
74043;BMP280;62384;53.600;10.040;2022-12-20T11:59:50;-9564.09;;;12.03
74043;BMP280;62384;53.600;10.040;2022-12-20T12:05:13;-9564.50;;;12.05
74043;BMP280;62384;53.600;10.040;2022-12-20T12:07:40;-9565.81;;;12.10
74043;BMP280;62384;53.600;10.040;2022-12-20T12:10:15;-9564.38;;;12.04
74043;BMP280;62384;53.600;10.040;2022-12-20T12:12:53;-9564.75;;;12.06
74043;BMP280;62384;53.600;10.040;2022-12-20T12:18:16;-9567.13;;;12.15
74043;BMP280;62384;53.600;10.040;2022-12-20T12:26:18;-9567.41;;;12.16
74043;BMP280;62384;53.600;10.040;2022-12-20T12:28:54;-9567.91;;;12.18
74043;BMP280;62384;53.600;10.040;2022-12-20T12:31:27;-9567.78;;;12.17
74043;BMP280;62384;53.600;10.040;2022-12-20T12:34:29;-9566.72;;;12.13
74043;BMP280;62384;53.600;10.040;2022-12-20T12:43:15;-9562.00;;;11.95
74043;BMP280;62384;53.600;10.040;2022-12-20T12:45:49;-9560.03;;;11.88
74043;BMP280;62384;53.600;10.040;2022-12-20T12:48:20;-9557.78;;;11.79
74043;BMP280;62384;53.600;10.040;2022-12-20T12:50:52;-9555.28;;;11.70
74043;BMP280;62384;53.600;10.040;2022-12-20T12:53:35;-9553.81;;;11.64
74043;BMP280;62384;53.600;10.040;2022-12-20T13:01:53;-9547.78;;;11.41
74043;BMP280;62384;53.600;10.040;2022-12-20T13:11:45;-9546.72;;;11.37
74043;BMP280;62384;53.600;10.040;2022-12-20T13:14:51;-9546.19;;;11.35
74043;BMP280;62384;53.600;10.040;2022-12-20T13:19:52;-9544.59;;;11.29
74043;BMP280;62384;53.600;10.040;2022-12-20T13:22:20;-9544.22;;;11.27
74043;BMP280;62384;53.600;10.040;2022-12-20T13:25:00;-9540.41;;;11.13
74043;BMP280;62384;53.600;10.040;2022-12-20T13:38:01;-9533.81;;;10.88
74043;BMP280;62384;53.600;10.040;2022-12-20T13:43:52;-9538.28;;;11.05
74043;BMP280;62384;53.600;10.040;2022-12-20T13:49:38;-9537.09;;;11.00
74043;BMP280;62384;53.600;10.040;2022-12-20T13:54:56;-9536.84;;;10.99
74043;BMP280;62384;53.600;10.040;2022-12-20T13:57:42;-9537.25;;;11.01
74043;BMP280;62384;53.600;10.040;2022-12-20T14:00:22;-9535.91;;;10.96
74043;BMP280;62384;53.600;10.040;2022-12-20T14:02:50;-9535.53;;;10.94
74043;BMP280;62384;53.600;10.040;2022-12-20T14:05:20;-9536.19;;;10.97
74043;BMP280;62384;53.600;10.040;2022-12-20T14:07:55;-9536.59;;;10.98
74043;BMP280;62384;53.600;10.040;2022-12-20T14:10:23;-9535.91;;;10.96
74043;BMP280;62384;53.600;10.040;2022-12-20T14:12:50;-9536.44;;;10.98
74043;BMP280;62384;53.600;10.040;2022-12-20T14:15:21;-9536.06;;;10.96
74043;BMP280;62384;53.600;10.040;2022-12-20T14:17:50;-9535.38;;;10.94
74043;BMP280;62384;53.600;10.040;2022-12-20T14:20:20;-9535.13;;;10.93
74043;BMP280;62384;53.600;10.040;2022-12-20T14:22:57;-9533.69;;;10.87
74043;BMP280;62384;53.600;10.040;2022-12-20T14:25:50;-9532.38;;;10.82
74043;BMP280;62384;53.600;10.040;2022-12-20T14:28:29;-9533.03;;;10.85
74043;BMP280;62384;53.600;10.040;2022-12-20T14:30:58;-9531.31;;;10.78
74043;BMP280;62384;53.600;10.040;2022-12-20T14:33:33;-9530.25;;;10.74
74043;BMP280;62384;53.600;10.040;2022-12-20T14:38:41;-9529.34;;;10.70
74043;BMP280;62384;53.600;10.040;2022-12-20T14:41:30;-9521.19;;;10.39
74043;BMP280;62384;53.600;10.040;2022-12-20T14:44:12;-9527.34;;;10.63
74043;BMP280;62384;53.600;10.040;2022-12-20T14:46:56;-9524.84;;;10.53
74043;BMP280;62384;53.600;10.040;2022-12-20T14:52:04;-9525.78;;;10.57
74043;BMP280;62384;53.600;10.040;2022-12-20T14:54:31;-9525.50;;;10.56
74043;BMP280;62384;53.600;10.040;2022-12-20T14:56:56;-9523.94;;;10.50
74043;BMP280;62384;53.600;10.040;2022-12-20T14:59:26;-9522.75;;;10.45
74043;BMP280;62384;53.600;10.040;2022-12-20T15:01:52;-9521.31;;;10.40
74043;BMP280;62384;53.600;10.040;2022-12-20T15:04:38;-9521.44;;;10.40
74043;BMP280;62384;53.600;10.040;2022-12-20T15:07:04;-9521.19;;;10.39
74043;BMP280;62384;53.600;10.040;2022-12-20T15:09:30;-9519.84;;;10.34
74043;BMP280;62384;53.600;10.040;2022-12-20T15:11:56;-9520.13;;;10.35
74043;BMP280;62384;53.600;10.040;2022-12-20T15:14:36;-9521.03;;;10.39
74043;BMP280;62384;53.600;10.040;2022-12-20T15:17:04;-9520.13;;;10.35
74043;BMP280;62384;53.600;10.040;2022-12-20T15:19:30;-9520.13;;;10.35
74043;BMP280;62384;53.600;10.040;2022-12-20T15:21:57;-9518.53;;;10.29
74043;BMP280;62384;53.600;10.040;2022-12-20T15:24:24;-9520.38;;;10.36
74043;BMP280;62384;53.600;10.040;2022-12-20T15:26:51;-9521.31;;;10.40
74043;BMP280;62384;53.600;10.040;2022-12-20T15:29:19;-9521.19;;;10.39
74043;BMP280;62384;53.600;10.040;2022-12-20T15:31:51;-9520.25;;;10.36
74043;BMP280;62384;53.600;10.040;2022-12-20T15:34:28;-9519.34;;;10.32
74043;BMP280;62384;53.600;10.040;2022-12-20T15:36:56;-9519.59;;;10.33
74043;BMP280;62384;53.600;10.040;2022-12-20T15:39:25;-9521.56;;;10.41
74043;BMP280;62384;53.600;10.040;2022-12-20T15:41:50;-9513.28;;;10.09
74043;BMP280;62384;53.600;10.040;2022-12-20T15:44:19;-9515.00;;;10.16
74043;BMP280;62384;53.600;10.040;2022-12-20T15:46:45;-9520.66;;;10.37
74043;BMP280;62384;53.600;10.040;2022-12-20T15:49:13;-9521.69;;;10.41
74043;BMP280;62384;53.600;10.040;2022-12-20T15:51:39;-9521.03;;;10.39
74043;BMP280;62384;53.600;10.040;2022-12-20T15:54:16;-9521.84;;;10.42
74043;BMP280;62384;53.600;10.040;2022-12-20T15:56:45;-9521.44;;;10.40
74043;BMP280;62384;53.600;10.040;2022-12-20T15:59:11;-9520.91;;;10.38
74043;BMP280;62384;53.600;10.040;2022-12-20T16:01:37;-9522.50;;;10.44
74043;BMP280;62384;53.600;10.040;2022-12-20T16:04:04;-9524.34;;;10.51